Weather reports worldwide

Advertisment
Monte Settepani, Italy (16111): temperature & dewpoint: 15.05.2019 05:00:00 - 21.05.2019 05:00:00 (CEST)Monte Settepani, Italy (16111): wind speed: 15.05.2019 05:00:00 - 21.05.2019 05:00:00 (CEST)Monte Settepani, Italy (16111): wind direction: 15.05.2019 05:00:00 - 21.05.2019 05:00:00 (CEST)
Date & Time tt [°C] td [°C] ff [km/h] ff [kn] dd
21.05.2019 05:00:00 5,8 5,8 - - -
21.05.2019 04:00:00 5,9 - - - -
21.05.2019 03:00:00 5,9 5,9 - - -
21.05.2019 02:00:00 5,9 - - - -
21.05.2019 01:00:00 6,0 6,0 - - -
21.05.2019 00:00:00 6,0 6,0 - - -
20.05.2019 23:00:00 5,9 5,9 - - -
20.05.2019 22:00:00 6,1 6,1 - - -
20.05.2019 21:00:00 5,9 5,9 - - -
20.05.2019 20:00:00 5,9 5,9 - - -
20.05.2019 19:00:00 5,9 5,9 - - -
20.05.2019 18:00:00 6,4 6,4 - - -
20.05.2019 17:00:00 6,2 6,2 - - -
20.05.2019 16:00:00 6,6 6,6 - - -
20.05.2019 15:00:00 6,7 6,7 - - -
20.05.2019 14:00:00 6,7 - - - -
20.05.2019 13:00:00 7,2 7,2 - - -
20.05.2019 12:00:00 7,2 7,2 - - -
20.05.2019 11:00:00 7,3 7,3 - - -
20.05.2019 10:00:00 7,4 - - - -
20.05.2019 09:00:00 6,2 6,2 - - -
20.05.2019 08:00:00 5,3 5,3 - - -
20.05.2019 07:00:00 4,9 4,9 - - -
20.05.2019 06:00:00 4,8 - - - -
20.05.2019 05:00:00 4,8 4,8 - - -
20.05.2019 04:00:00 5,1 5,1 - - -
20.05.2019 03:00:00 5,2 5,2 - - -
20.05.2019 02:00:00 5,2 5,2 - - -
20.05.2019 01:00:00 5,0 5,0 - - -
20.05.2019 00:00:00 5,0 5,0 - - -
19.05.2019 23:00:00 5,0 5,0 - - -
19.05.2019 22:00:00 5,2 - - - -
19.05.2019 21:00:00 4,8 4,8 - - -
19.05.2019 20:00:00 5,5 5,5 - - -
19.05.2019 19:00:00 6,0 6,0 - - -
19.05.2019 18:00:00 5,9 5,9 - - -
19.05.2019 17:00:00 5,5 5,5 - - -
19.05.2019 16:00:00 6,6 6,6 - - -
19.05.2019 15:00:00 5,8 - - - -
19.05.2019 14:00:00 5,8 5,8 - - -
19.05.2019 13:00:00 5,3 5,3 - - -
19.05.2019 12:00:00 4,5 4,5 - - -
19.05.2019 11:00:00 4,5 4,5 - - -
19.05.2019 10:00:00 4,3 4,3 - - -
19.05.2019 09:00:00 3,9 3,9 - - -
19.05.2019 08:00:00 3,7 - - - -
19.05.2019 07:00:00 3,8 3,8 - - -
19.05.2019 06:00:00 3,8 3,8 - - -
19.05.2019 05:00:00 3,9 3,9 - - -
19.05.2019 04:00:00 4,3 4,3 - - -
19.05.2019 03:00:00 4,3 4,3 - - -
19.05.2019 02:00:00 4,2 4,2 - - -
19.05.2019 01:00:00 4,2 - - - -
19.05.2019 00:00:00 4,0 4,0 - - -
18.05.2019 23:00:00 4,2 4,2 - - -
18.05.2019 22:00:00 4,0 - - - -
18.05.2019 21:00:00 4,1 4,1 - - -
18.05.2019 20:00:00 4,2 4,2 - - -
18.05.2019 19:00:00 4,4 4,4 - - -
18.05.2019 18:00:00 4,4 4,4 - - -
18.05.2019 17:00:00 4,4 4,4 - - -
18.05.2019 16:00:00 4,4 4,4 - - -
18.05.2019 15:00:00 4,1 4,1 - - -
18.05.2019 14:00:00 3,7 - - - -
18.05.2019 13:00:00 3,5 3,5 - - -
18.05.2019 12:00:00 3,3 3,3 - - -
18.05.2019 11:00:00 3,3 3,3 - - -
18.05.2019 10:00:00 3,3 3,3 - - -
18.05.2019 09:00:00 3,2 3,2 - - -
18.05.2019 08:00:00 2,9 2,9 - - -
18.05.2019 07:00:00 2,9 - - - -
18.05.2019 06:00:00 2,8 2,8 - - -
18.05.2019 05:00:00 2,7 2,7 - - -
18.05.2019 04:00:00 2,9 2,9 - - -
18.05.2019 03:00:00 3,0 3,0 - - -
18.05.2019 02:00:00 3,7 - - - -
18.05.2019 01:00:00 4,0 4,0 - - -
18.05.2019 00:00:00 4,2 4,2 - - -
17.05.2019 23:00:00 4,4 4,4 - - -
17.05.2019 22:00:00 4,8 4,8 - - -
17.05.2019 21:00:00 4,9 - - - -
17.05.2019 20:00:00 5,2 5,1 - - -
17.05.2019 19:00:00 6,2 2,8 - - -
17.05.2019 18:00:00 7,1 - - - -
17.05.2019 17:00:00 7,3 4,2 - - -
17.05.2019 16:00:00 8,2 3,6 - - -
17.05.2019 15:00:00 8,3 5,2 - - -
17.05.2019 14:00:00 7,7 5,8 - - -
17.05.2019 13:00:00 7,1 7,1 - - -
17.05.2019 12:00:00 8,3 6,9 - - -
17.05.2019 11:00:00 7,7 7,7 - - -
17.05.2019 10:00:00 6,8 6,5 - - -
17.05.2019 09:00:00 6,6 6,6 - - -
17.05.2019 08:00:00 6,0 - - - -
17.05.2019 07:00:00 5,4 5,0 - - -
17.05.2019 06:00:00 5,6 5,0 - - -
17.05.2019 05:00:00 5,9 5,8 - - -
17.05.2019 04:00:00 6,2 5,8 - - -
17.05.2019 03:00:00 6,3 5,7 - - -
17.05.2019 02:00:00 6,3 - - - -
17.05.2019 01:00:00 6,5 5,6 - - -
17.05.2019 00:00:00 6,8 5,3 - - -
16.05.2019 23:00:00 7,1 4,4 - - -
16.05.2019 22:00:00 7,1 3,1 - - -
16.05.2019 21:00:00 6,8 3,9 - - -
16.05.2019 20:00:00 7,3 3,1 - - -
16.05.2019 19:00:00 7,4 - - - -
16.05.2019 18:00:00 - - - - -
16.05.2019 17:00:00 8,1 6,4 - - -
16.05.2019 16:00:00 8,3 - - - -
16.05.2019 15:00:00 8,9 - - - -
16.05.2019 14:00:00 8,4 6,7 - - -
16.05.2019 13:00:00 7,7 5,8 - - -
16.05.2019 12:00:00 9,1 6,5 - - -
16.05.2019 11:00:00 7,4 4,5 - - -
16.05.2019 10:00:00 6,9 4,3 - - -
16.05.2019 09:00:00 5,8 3,4 - - -
16.05.2019 08:00:00 4,7 3,0 - - -
16.05.2019 07:00:00 3,3 1,8 - - -
16.05.2019 06:00:00 2,9 - - - -
16.05.2019 05:00:00 3,4 1,9 - - -
16.05.2019 04:00:00 2,7 1,7 - - -
16.05.2019 03:00:00 2,5 - - - -
16.05.2019 02:00:00 2,6 1,1 - - -
16.05.2019 01:00:00 3,7 - - - -
16.05.2019 00:00:00 3,6 1,4 - - -
15.05.2019 23:00:00 3,4 - - - -
15.05.2019 22:00:00 3,4 0,9 - - -
15.05.2019 21:00:00 3,5 0,8 - - -
15.05.2019 20:00:00 4,1 0,6 - - -
15.05.2019 19:00:00 - - - - -
15.05.2019 18:00:00 5,0 3,0 - - -
15.05.2019 17:00:00 16,4 16,2 4 2 S
15.05.2019 16:00:00 5,9 1,2 - - -
15.05.2019 15:00:00 6,5 0,9 - - -
15.05.2019 14:00:00 6,5 0,9 4 2 NNE
15.05.2019 13:00:00 6,7 2,1 - - -
15.05.2019 12:00:00 3,7 0,0 - - -
15.05.2019 11:00:00 4,2 - - - -
15.05.2019 10:00:00 2,5 0,0 - - -
15.05.2019 09:00:00 1,8 0,8 - - -
15.05.2019 08:00:00 0,6 -0,7 - - -
15.05.2019 07:00:00 -0,2 -0,3 - - -
15.05.2019 06:00:00 0,1 0,1 - - -
15.05.2019 05:00:00 0,1 0,1 - - -

tt = temperature
td = dewpoint
ff = wind speed
dd = wind direction

Next stations